Time;durP1;ratioP1;P1;durP2;ratioP2;P2;SDS_P1;SDS_P2;PMS_P1;PMS_P2;Temp;Humidity;BMP_temperature;BMP_pressure;BME280_temperature;BME280_humidity;BME280_pressure;Samples;Min_cycle;Max_cycle;Signal;HPM_P1;HPM_P2
2022/01/04 00:00:35;;;;;;;3.30;2.65;;;8.30;99.90;;;;;;2090302;28;20071;-71
2022/01/04 00:01:36;;;;;;;3.97;2.90;;;8.30;99.90;;;;;;2086412;28;20033;-71
2022/01/04 00:02:36;;;;;;;4.40;2.80;;;8.40;99.90;;;;;;2090594;28;20029;-71
2022/01/04 00:03:37;;;;;;;3.55;2.50;;;8.40;99.90;;;;;;2086842;28;20026;-71
2022/01/04 00:04:40;;;;;;;3.50;2.60;;;8.30;99.90;;;;;;2087271;28;20132;-71
2022/01/04 00:05:41;;;;;;;3.50;2.60;;;8.40;99.90;;;;;;2079284;28;20031;-71
2022/01/04 00:06:45;;;;;;;4.05;2.78;;;8.40;99.90;;;;;;2081029;28;20040;-71
2022/01/04 00:07:46;;;;;;;2.70;2.50;;;8.40;99.90;;;;;;2080926;28;20558;-71
2022/01/04 00:08:47;;;;;;;3.20;2.45;;;8.40;99.90;;;;;;2080835;28;20017;-71
2022/01/04 00:09:51;;;;;;;3.25;2.35;;;8.30;99.90;;;;;;2080017;28;20022;-72
2022/01/04 00:11:05;;;;;;;4.07;2.20;;;8.40;99.90;;;;;;2080983;28;20473;-71
2022/01/04 00:13:28;;;;;;;2.42;2.00;;;8.30;99.90;;;;;;2079745;28;20138;-71
2022/01/04 00:14:29;;;;;;;2.28;1.83;;;8.40;99.90;;;;;;2091515;28;20074;-71
2022/01/04 00:15:30;;;;;;;4.93;2.25;;;8.40;99.90;;;;;;2087630;28;20017;-71
2022/01/04 00:16:31;;;;;;;2.30;1.73;;;8.30;99.90;;;;;;2081828;28;20032;-71
2022/01/04 00:17:32;;;;;;;2.95;1.77;;;8.40;99.90;;;;;;2079241;28;20532;-71
2022/01/04 00:18:34;;;;;;;3.30;1.80;;;8.40;99.90;;;;;;2081012;28;20119;-70
2022/01/04 00:19:34;;;;;;;3.63;1.83;;;8.40;99.90;;;;;;2073563;28;20143;-71
2022/01/04 00:20:35;;;;;;;3.95;1.70;;;8.40;99.90;;;;;;2084710;28;20032;-71
2022/01/04 00:21:37;;;;;;;3.38;1.80;;;8.40;99.90;;;;;;2086251;28;20488;-73
2022/01/04 00:22:38;;;;;;;3.28;1.70;;;8.40;99.90;;;;;;2087131;28;20093;-73
2022/01/04 00:23:39;;;;;;;3.50;1.70;;;8.40;99.90;;;;;;2077071;28;20041;-73
2022/01/04 00:24:40;;;;;;;2.35;1.67;;;8.30;99.90;;;;;;2072782;28;20022;-73
2022/01/04 00:25:41;;;;;;;4.88;1.95;;;8.30;99.90;;;;;;2077640;28;20029;-73
2022/01/04 00:26:45;;;;;;;3.40;1.90;;;8.40;99.90;;;;;;2090765;28;20025;-73
2022/01/04 00:27:46;;;;;;;3.72;1.90;;;8.30;99.90;;;;;;2087211;28;20020;-73
2022/01/04 00:28:50;;;;;;;3.05;1.90;;;8.30;99.90;;;;;;2088116;28;20036;-73
2022/01/04 00:29:51;;;;;;;2.65;1.90;;;8.30;99.90;;;;;;2087506;28;20489;-73
2022/01/04 00:30:52;;;;;;;3.05;1.92;;;8.30;99.90;;;;;;2088565;28;20017;-72
2022/01/04 00:31:53;;;;;;;2.35;1.70;;;8.30;99.90;;;;;;2088998;28;20643;-72
2022/01/04 00:32:58;;;;;;;3.10;2.17;;;8.30;99.90;;;;;;2089750;28;20115;-72
2022/01/04 00:33:58;;;;;;;6.65;2.63;;;8.30;99.90;;;;;;2082412;28;20032;-73
2022/01/04 00:35:03;;;;;;;6.05;2.67;;;8.30;99.90;;;;;;2085021;28;20081;-72
2022/01/04 00:36:05;;;;;;;7.18;3.08;;;8.30;99.90;;;;;;2080857;28;20124;-71
2022/01/04 00:37:06;;;;;;;6.78;2.97;;;8.30;99.90;;;;;;2079279;28;20026;-71
2022/01/04 00:38:07;;;;;;;7.38;3.22;;;8.30;99.90;;;;;;2090477;28;20031;-73
2022/01/04 00:39:08;;;;;;;9.73;3.50;;;8.30;99.90;;;;;;2086832;28;20039;-70
2022/01/04 00:40:09;;;;;;;6.97;3.10;;;8.30;99.90;;;;;;2088956;28;20036;-71
2022/01/04 00:41:10;;;;;;;6.15;3.00;;;8.30;99.90;;;;;;2079754;28;20144;-71
2022/01/04 00:42:11;;;;;;;6.18;3.05;;;8.30;99.90;;;;;;2079734;28;20021;-71
2022/01/04 00:43:12;;;;;;;5.72;3.15;;;8.20;99.90;;;;;;2078084;28;20093;-70
2022/01/04 00:44:13;;;;;;;7.25;3.20;;;8.30;99.90;;;;;;2081310;28;20030;-71
2022/01/04 00:45:13;;;;;;;7.85;3.58;;;8.30;99.90;;;;;;2078162;28;20667;-71
2022/01/04 00:46:17;;;;;;;8.15;3.92;;;8.30;99.90;;;;;;2080343;28;20020;-70
2022/01/04 00:47:25;;;;;;;8.63;4.25;;;8.30;99.90;;;;;;2079689;28;20022;-70
2022/01/04 00:49:27;;;;;;;7.68;3.60;;;8.30;99.90;;;;;;2088513;28;20027;-70
2022/01/04 00:50:29;;;;;;;7.82;3.55;;;8.20;99.90;;;;;;2091508;28;20032;-71
2022/01/04 00:51:31;;;;;;;5.82;3.25;;;8.20;99.90;;;;;;2086197;28;20017;-71
2022/01/04 00:52:31;;;;;;;6.13;3.38;;;8.20;99.90;;;;;;2089685;28;20096;-71
2022/01/04 00:53:33;;;;;;;4.28;2.97;;;8.20;99.90;;;;;;2087350;28;20040;-71
2022/01/04 00:54:35;;;;;;;5.78;3.22;;;8.20;99.90;;;;;;2089431;28;20071;-73
2022/01/04 00:55:36;;;;;;;4.63;2.75;;;8.20;99.90;;;;;;2079999;28;20022;-73
2022/01/04 00:56:37;;;;;;;4.10;2.90;;;8.20;99.90;;;;;;2082101;28;20022;-72
2022/01/04 00:57:38;;;;;;;4.70;2.90;;;8.20;99.90;;;;;;2077452;28;20057;-72
2022/01/04 00:58:38;;;;;;;4.00;2.72;;;8.20;99.90;;;;;;2079619;28;20033;-72
2022/01/04 00:59:39;;;;;;;4.00;2.78;;;8.20;99.90;;;;;;2087983;28;20188;-72
2022/01/04 01:00:41;;;;;;;3.83;2.85;;;8.20;99.90;;;;;;2087438;28;20088;-72
2022/01/04 01:01:45;;;;;;;3.90;2.72;;;8.20;99.90;;;;;;2086498;28;20086;-73
2022/01/04 01:02:46;;;;;;;4.35;2.85;;;8.20;99.90;;;;;;2089432;28;20032;-72
2022/01/04 01:03:47;;;;;;;3.75;2.40;;;8.20;99.90;;;;;;2087187;28;20035;-72
2022/01/04 01:04:48;;;;;;;3.88;2.45;;;8.20;99.90;;;;;;2088974;28;20519;-73
2022/01/04 01:05:49;;;;;;;3.33;2.40;;;8.20;99.90;;;;;;2088214;28;20028;-73
2022/01/04 01:06:50;;;;;;;4.22;2.45;;;8.20;99.90;;;;;;2079122;28;20022;-72
2022/01/04 01:07:53;;;;;;;3.47;2.25;;;8.20;99.90;;;;;;2079539;28;20152;-72
2022/01/04 01:08:53;;;;;;;3.58;1.85;;;8.10;99.90;;;;;;2087564;28;20024;-72
2022/01/04 01:10:21;;;;;;;2.97;1.73;;;8.20;99.90;;;;;;2087910;28;20116;-73
2022/01/04 01:11:15;;;;;;;2.92;2.25;;;8.20;99.90;;;;;;2086778;28;20029;-72
2022/01/04 01:12:16;;;;;;;3.28;2.08;;;8.20;99.90;;;;;;2088719;28;20729;-72
2022/01/04 01:13:17;;;;;;;5.78;2.72;;;8.10;99.90;;;;;;2085355;28;20036;-72
2022/01/04 01:14:18;;;;;;;5.20;2.55;;;8.20;99.90;;;;;;2081999;28;20509;-73
2022/01/04 01:15:20;;;;;;;4.38;2.53;;;8.20;99.90;;;;;;2074412;28;20057;-72
2022/01/04 01:16:21;;;;;;;4.10;2.63;;;8.20;99.90;;;;;;2089437;28;20082;-72
2022/01/04 01:17:21;;;;;;;3.72;2.40;;;8.20;99.90;;;;;;2087359;28;20059;-72
2022/01/04 01:18:22;;;;;;;4.40;2.53;;;8.20;99.90;;;;;;2089407;28;20040;-72
2022/01/04 01:19:23;;;;;;;6.15;3.17;;;8.30;99.90;;;;;;2076560;28;20030;-71
2022/01/04 01:20:27;;;;;;;15.23;6.00;;;8.30;99.90;;;;;;2082101;28;20437;-72
2022/01/04 01:21:28;;;;;;;16.85;6.30;;;8.30;99.90;;;;;;2088501;28;20672;-71
2022/01/04 01:22:32;;;;;;;11.40;4.97;;;8.30;99.90;;;;;;2089613;28;20032;-71
2022/01/04 01:23:34;;;;;;;4.82;2.65;;;8.40;99.90;;;;;;2087885;28;20068;-71
2022/01/04 01:24:35;;;;;;;5.82;2.78;;;8.40;99.90;;;;;;2089689;28;20108;-73
2022/01/04 01:25:36;;;;;;;5.45;2.83;;;8.50;99.90;;;;;;2085895;28;20480;-71
2022/01/04 01:26:36;;;;;;;4.45;2.63;;;8.50;99.90;;;;;;2091101;28;20039;-72
2022/01/04 01:27:37;;;;;;;3.72;2.78;;;8.60;99.90;;;;;;2077026;28;20022;-73
2022/01/04 01:28:39;;;;;;;5.15;2.83;;;8.60;99.90;;;;;;2080163;28;20025;-71
2022/01/04 01:29:40;;;;;;;5.13;2.67;;;8.70;99.90;;;;;;2088301;28;20037;-70
2022/01/04 01:30:43;;;;;;;5.22;2.80;;;8.70;99.90;;;;;;2089194;28;20039;-69
2022/01/04 01:31:44;;;;;;;6.18;3.15;;;8.70;99.90;;;;;;2087194;28;20043;-70
2022/01/04 01:32:45;;;;;;;5.90;2.90;;;8.70;99.90;;;;;;2090043;28;20400;-72
2022/01/04 01:33:46;;;;;;;4.88;2.40;;;8.70;99.90;;;;;;2086723;28;20009;-71
2022/01/04 01:34:51;;;;;;;2.88;2.08;;;8.70;99.90;;;;;;2071938;28;20033;-70
2022/01/04 01:35:52;;;;;;;3.33;2.10;;;8.70;99.90;;;;;;2072441;28;20025;-71
2022/01/04 01:36:54;;;;;;;5.93;2.33;;;8.70;99.90;;;;;;2087965;28;20051;-71
2022/01/04 01:37:55;;;;;;;3.58;2.10;;;8.70;99.90;;;;;;2090077;28;20025;-71
2022/01/04 01:38:56;;;;;;;2.60;2.00;;;8.60;99.90;;;;;;2078995;28;20052;-68
2022/01/04 01:39:57;;;;;;;3.38;1.85;;;8.50;99.90;;;;;;2080298;28;20013;-70
2022/01/04 01:41:01;;;;;;;4.15;2.10;;;8.50;99.90;;;;;;2088836;28;20052;-72
2022/01/04 01:42:05;;;;;;;3.42;1.90;;;8.50;99.90;;;;;;2089078;28;20429;-70
2022/01/04 01:43:07;;;;;;;6.55;2.20;;;8.50;99.90;;;;;;2084464;28;20025;-70
2022/01/04 01:44:07;;;;;;;4.25;2.17;;;8.50;99.90;;;;;;2087808;28;20119;-70
2022/01/04 01:45:10;;;;;;;3.13;1.80;;;8.50;99.90;;;;;;2080157;28;20104;-70
2022/01/04 01:46:11;;;;;;;3.80;2.00;;;8.50;99.90;;;;;;2062864;28;20058;-71
2022/01/04 01:47:12;;;;;;;2.70;1.75;;;8.50;99.90;;;;;;2072400;28;20013;-71
2022/01/04 01:48:13;;;;;;;2.45;1.60;;;8.50;99.90;;;;;;2086778;28;20432;-71
2022/01/04 01:49:14;;;;;;;2.53;1.50;;;8.50;99.90;;;;;;2078178;28;20029;-71
2022/01/04 01:50:15;;;;;;;2.85;1.52;;;8.50;99.90;;;;;;2080943;28;20021;-71
2022/01/04 01:51:17;;;;;;;3.15;1.70;;;8.60;99.90;;;;;;2087119;28;20461;-71
2022/01/04 01:52:18;;;;;;;3.17;1.60;;;8.60;99.90;;;;;;2087073;28;20032;-71
2022/01/04 01:53:22;;;;;;;3.95;1.90;;;8.60;99.90;;;;;;2088641;28;20097;-71
2022/01/04 01:54:26;;;;;;;3.55;1.70;;;8.60;99.90;;;;;;2080216;28;20502;-70
2022/01/04 01:55:27;;;;;;;2.45;1.52;;;8.60;99.90;;;;;;2077546;28;20037;-71
2022/01/04 01:56:29;;;;;;;4.43;1.50;;;8.70;99.90;;;;;;2082662;28;20032;-70
2022/01/04 01:57:29;;;;;;;3.25;1.60;;;8.70;99.90;;;;;;2075056;28;20776;-71
2022/01/04 01:58:30;;;;;;;4.72;1.50;;;8.70;99.90;;;;;;2081449;28;20052;-70
2022/01/04 01:59:31;;;;;;;3.83;1.55;;;8.70;99.90;;;;;;2087837;28;20512;-72
2022/01/04 02:00:32;;;;;;;2.20;1.50;;;8.70;99.90;;;;;;2089252;28;20025;-73
2022/01/04 02:01:34;;;;;;;4.03;1.60;;;8.70;99.90;;;;;;2084962;28;20037;-71
2022/01/04 02:02:35;;;;;;;2.72;1.60;;;8.70;99.90;;;;;;2090812;28;20079;-71
2022/01/04 02:03:36;;;;;;;2.47;1.50;;;8.70;99.90;;;;;;2076432;28;20038;-71
2022/01/04 02:04:37;;;;;;;2.80;1.40;;;8.80;99.90;;;;;;2081347;28;20060;-72
2022/01/04 02:05:37;;;;;;;4.95;1.70;;;8.80;99.90;;;;;;2086716;28;20034;-73
2022/01/04 02:06:38;;;;;;;4.05;1.38;;;8.80;99.90;;;;;;2089130;28;20037;-72
2022/01/04 02:07:41;;;;;;;4.25;1.73;;;8.70;99.90;;;;;;2089082;28;20048;-72
2022/01/04 02:08:43;;;;;;;2.50;1.50;;;8.80;99.90;;;;;;2081415;28;20037;-71
2022/01/04 02:09:51;;;;;;;2.55;1.50;;;8.70;99.90;;;;;;2077152;28;20040;-72
2022/01/04 02:10:55;;;;;;;3.22;1.63;;;8.70;99.90;;;;;;2087443;28;20013;-71
2022/01/04 02:11:57;;;;;;;1.95;1.33;;;8.80;99.90;;;;;;2086735;28;20052;-72
2022/01/04 02:12:58;;;;;;;3.28;1.52;;;8.70;99.90;;;;;;2088211;28;20529;-72
2022/01/04 02:14:01;;;;;;;3.25;1.65;;;8.70;99.90;;;;;;2079268;28;20036;-72
2022/01/04 02:15:04;;;;;;;3.00;1.52;;;8.80;99.90;;;;;;2080333;28;20014;-72
2022/01/04 02:16:09;;;;;;;2.97;1.40;;;8.80;99.90;;;;;;2085574;28;20046;-72
2022/01/04 02:17:10;;;;;;;3.15;1.50;;;8.70;99.90;;;;;;2086626;28;20059;-72
2022/01/04 02:18:11;;;;;;;3.33;1.60;;;8.70;99.90;;;;;;2086384;28;20158;-72
2022/01/04 02:19:11;;;;;;;2.08;1.50;;;8.70;99.90;;;;;;2078246;28;20017;-72
2022/01/04 02:20:13;;;;;;;2.70;1.42;;;8.70;99.90;;;;;;2080612;28;20021;-72
2022/01/04 02:21:14;;;;;;;4.13;1.60;;;8.70;99.90;;;;;;2078020;28;20117;-72
2022/01/04 02:22:14;;;;;;;4.07;1.60;;;8.70;99.90;;;;;;2078631;28;20065;-72
2022/01/04 02:23:15;;;;;;;3.22;1.58;;;8.70;99.90;;;;;;2088725;28;20032;-72
2022/01/04 02:24:16;;;;;;;2.20;1.50;;;8.70;99.90;;;;;;2087120;28;20201;-72
2022/01/04 02:25:17;;;;;;;2.08;1.55;;;8.70;99.90;;;;;;2069454;28;20171;-72
2022/01/04 02:26:18;;;;;;;3.47;1.80;;;8.70;99.90;;;;;;2071878;28;20025;-75
2022/01/04 02:27:19;;;;;;;3.08;1.65;;;8.60;99.90;;;;;;2076630;28;20108;-72
2022/01/04 02:28:20;;;;;;;3.45;1.50;;;8.60;99.90;;;;;;2071882;28;20029;-72
2022/01/04 02:29:21;;;;;;;2.22;1.50;;;8.60;99.90;;;;;;2072824;28;20049;-71
2022/01/04 02:30:22;;;;;;;4.32;1.70;;;8.60;99.90;;;;;;2082877;28;20104;-71
2022/01/04 02:31:23;;;;;;;3.13;1.50;;;8.60;99.90;;;;;;2078356;28;20034;-72
2022/01/04 02:32:24;;;;;;;3.50;1.83;;;8.60;99.90;;;;;;2080801;28;20045;-72
2022/01/04 02:33:24;;;;;;;2.42;1.38;;;8.60;99.90;;;;;;2077512;28;20026;-73
2022/01/04 02:34:25;;;;;;;2.33;1.48;;;8.60;99.90;;;;;;2086458;28;20027;-72
2022/01/04 02:35:30;;;;;;;2.58;1.52;;;8.60;99.90;;;;;;2076059;28;20920;-72
2022/01/04 02:36:31;;;;;;;2.55;1.50;;;8.60;99.90;;;;;;2077893;28;20026;-72
2022/01/04 02:37:33;;;;;;;3.42;1.50;;;8.50;99.90;;;;;;2088654;28;20028;-72
2022/01/04 02:38:34;;;;;;;4.57;1.77;;;8.60;99.90;;;;;;2085157;28;20053;-71
2022/01/04 02:39:36;;;;;;;4.07;1.60;;;8.50;99.90;;;;;;2081368;28;20388;-70
2022/01/04 02:40:37;;;;;;;2.58;1.50;;;8.50;99.90;;;;;;2072894;28;20018;-70
2022/01/04 02:41:38;;;;;;;2.03;1.40;;;8.50;99.90;;;;;;2073246;28;20068;-71
2022/01/04 02:42:39;;;;;;;2.80;1.40;;;8.50;99.90;;;;;;2084548;28;20118;-71
2022/01/04 02:43:40;;;;;;;2.25;1.42;;;8.50;99.90;;;;;;2079572;28;20033;-71
2022/01/04 02:44:41;;;;;;;2.55;1.33;;;8.60;99.90;;;;;;2090651;28;20033;-71
2022/01/04 02:45:42;;;;;;;2.67;1.30;;;8.50;99.90;;;;;;2077179;28;20485;-70
2022/01/04 02:46:44;;;;;;;2.72;1.30;;;8.50;99.90;;;;;;2082543;28;20037;-70
2022/01/04 02:47:46;;;;;;;2.40;1.25;;;8.50;99.90;;;;;;2076798;28;20109;-70
2022/01/04 02:48:47;;;;;;;1.60;1.27;;;8.50;99.90;;;;;;2083613;28;20033;-70
2022/01/04 02:49:48;;;;;;;2.22;1.38;;;8.50;99.90;;;;;;2084697;28;20042;-70
2022/01/04 02:50:50;;;;;;;2.28;1.42;;;8.50;99.90;;;;;;2094157;28;20128;-71
2022/01/04 02:51:51;;;;;;;1.58;1.30;;;8.50;99.90;;;;;;2084691;28;20056;-71
2022/01/04 02:52:53;;;;;;;3.15;1.48;;;8.50;99.90;;;;;;2088594;28;20037;-70
2022/01/04 02:53:57;;;;;;;3.67;1.30;;;8.50;99.90;;;;;;2079566;28;20035;-70
2022/01/04 02:54:58;;;;;;;2.35;1.30;;;8.50;99.90;;;;;;2080797;28;20022;-70
2022/01/04 02:55:59;;;;;;;2.53;1.40;;;8.50;99.90;;;;;;2084238;28;20033;-70
2022/01/04 02:57:01;;;;;;;3.20;1.38;;;8.50;99.90;;;;;;2087772;28;20083;-70
2022/01/04 02:58:02;;;;;;;3.33;1.40;;;8.40;99.90;;;;;;2065867;28;20034;-70
2022/01/04 02:59:04;;;;;;;2.33;1.30;;;8.50;99.90;;;;;;2089533;28;20077;-70
2022/01/04 03:00:07;;;;;;;2.03;1.35;;;8.50;99.90;;;;;;2081011;28;20057;-70
2022/01/04 03:01:08;;;;;;;2.17;1.30;;;8.40;99.90;;;;;;2088816;28;20115;-70
2022/01/04 03:02:09;;;;;;;2.72;1.20;;;8.40;99.90;;;;;;2073740;28;20018;-70
2022/01/04 03:03:10;;;;;;;1.50;1.20;;;8.40;99.90;;;;;;2073845;28;20146;-70
2022/01/04 03:04:10;;;;;;;2.33;1.20;;;8.40;99.90;;;;;;2081883;28;20080;-70
2022/01/04 03:05:11;;;;;;;3.28;1.40;;;8.50;99.90;;;;;;2088577;28;20499;-70
2022/01/04 03:06:13;;;;;;;1.65;1.10;;;8.50;99.90;;;;;;2080932;28;20033;-70
2022/01/04 03:07:14;;;;;;;2.45;1.10;;;8.40;99.90;;;;;;2088099;28;20415;-70
2022/01/04 03:08:14;;;;;;;2.75;1.20;;;8.50;99.90;;;;;;2088632;28;20057;-70
2022/01/04 03:09:15;;;;;;;1.67;1.40;;;8.40;99.90;;;;;;2088092;28;20021;-70
2022/01/04 03:10:16;;;;;;;3.65;1.52;;;8.40;99.90;;;;;;2088682;28;20025;-70
2022/01/04 03:11:16;;;;;;;1.38;1.20;;;8.40;99.90;;;;;;2088590;28;20508;-70
2022/01/04 03:12:17;;;;;;;3.55;1.50;;;8.40;99.90;;;;;;2088306;28;20468;-69
2022/01/04 03:13:18;;;;;;;2.30;1.30;;;8.40;99.90;;;;;;2088473;28;20068;-68
2022/01/04 03:14:18;;;;;;;2.45;1.38;;;8.50;99.90;;;;;;2087911;28;20484;-69
2022/01/04 03:15:19;;;;;;;3.15;1.20;;;8.50;99.90;;;;;;2087983;28;20487;-70
2022/01/04 03:16:20;;;;;;;4.60;1.30;;;8.40;99.90;;;;;;2088557;28;20036;-70
2022/01/04 03:17:20;;;;;;;1.75;1.20;;;8.50;99.90;;;;;;2087973;28;20463;-70
2022/01/04 03:18:21;;;;;;;2.55;1.20;;;8.50;99.90;;;;;;2088632;28;20071;-70
2022/01/04 03:19:22;;;;;;;2.50;1.30;;;8.50;99.90;;;;;;2088029;28;20032;-70
2022/01/04 03:20:22;;;;;;;1.20;1.10;;;8.50;99.90;;;;;;2087735;28;20033;-70
2022/01/04 03:21:23;;;;;;;2.30;1.20;;;8.50;99.90;;;;;;2087861;28;20692;-70
2022/01/04 03:22:23;;;;;;;2.53;1.30;;;8.40;99.90;;;;;;2088503;28;20033;-70
2022/01/04 03:23:24;;;;;;;1.73;1.10;;;8.50;99.90;;;;;;2087908;28;20112;-70
2022/01/04 03:24:25;;;;;;;1.67;1.13;;;8.50;99.90;;;;;;2087952;28;20104;-69
2022/01/04 03:25:25;;;;;;;1.45;1.00;;;8.50;99.90;;;;;;2087883;28;20029;-70
2022/01/04 03:26:26;;;;;;;1.83;1.10;;;8.50;99.90;;;;;;2087430;28;20064;-70
2022/01/04 03:27:27;;;;;;;3.00;1.00;;;8.50;99.90;;;;;;2088591;28;20025;-69
2022/01/04 03:28:27;;;;;;;1.35;1.20;;;8.50;99.90;;;;;;2088532;28;20480;-69
2022/01/04 03:29:28;;;;;;;1.15;1.05;;;8.50;99.90;;;;;;2087891;28;20107;-69
2022/01/04 03:30:29;;;;;;;1.52;1.00;;;8.60;99.90;;;;;;2088459;28;20025;-69
2022/01/04 03:31:29;;;;;;;1.20;1.10;;;8.50;99.90;;;;;;2088399;28;20028;-70
2022/01/04 03:32:30;;;;;;;1.10;1.00;;;8.60;99.90;;;;;;2088651;28;20068;-69
2022/01/04 03:33:31;;;;;;;1.63;1.17;;;8.50;99.90;;;;;;2088386;28;20095;-69
2022/01/04 03:34:31;;;;;;;0.98;0.98;;;8.60;99.90;;;;;;2088638;28;20060;-69
2022/01/04 03:35:32;;;;;;;1.10;1.00;;;8.60;99.90;;;;;;2088666;28;20067;-69
2022/01/04 03:36:33;;;;;;;2.92;1.40;;;8.60;99.90;;;;;;2089067;28;20515;-69
2022/01/04 03:37:34;;;;;;;1.10;1.02;;;8.50;99.90;;;;;;2090631;28;20039;-71
2022/01/04 03:38:35;;;;;;;1.67;1.10;;;8.50;99.90;;;;;;2089960;28;20047;-71
2022/01/04 03:39:35;;;;;;;1.58;1.15;;;8.60;99.90;;;;;;2090473;28;20480;-71
2022/01/04 03:40:36;;;;;;;1.30;1.10;;;8.50;99.90;;;;;;2090403;28;20110;-71
2022/01/04 03:41:39;;;;;;;1.65;1.20;;;8.60;99.90;;;;;;2089804;28;20021;-71
2022/01/04 03:42:40;;;;;;;1.38;1.27;;;8.50;99.90;;;;;;2090287;28;20029;-71
2022/01/04 03:43:41;;;;;;;1.67;1.15;;;8.60;99.90;;;;;;2090339;28;20041;-71
2022/01/04 03:44:41;;;;;;;1.63;1.10;;;8.50;99.90;;;;;;2089511;28;20025;-71
2022/01/04 03:45:42;;;;;;;1.30;1.20;;;8.50;99.90;;;;;;2089471;28;20032;-71
2022/01/04 03:46:42;;;;;;;2.63;1.27;;;8.50;99.90;;;;;;2090221;28;20053;-71
2022/01/04 03:47:43;;;;;;;1.30;1.20;;;8.50;99.90;;;;;;2089376;28;20021;-71
2022/01/04 03:48:44;;;;;;;1.63;1.10;;;8.50;99.90;;;;;;2088859;28;20032;-71
2022/01/04 03:49:45;;;;;;;1.70;1.40;;;8.50;99.90;;;;;;2089383;28;20116;-71
2022/01/04 03:50:45;;;;;;;1.67;1.20;;;8.50;99.90;;;;;;2089821;28;20032;-70
2022/01/04 03:51:47;;;;;;;1.20;1.10;;;8.50;99.90;;;;;;2089770;28;20025;-70
2022/01/04 03:52:47;;;;;;;1.85;1.20;;;8.50;99.90;;;;;;2089926;28;20036;-71
2022/01/04 03:53:48;;;;;;;2.22;1.35;;;8.50;99.90;;;;;;2089938;28;20048;-71
2022/01/04 03:54:48;;;;;;;3.03;1.75;;;8.50;99.90;;;;;;2090272;28;20526;-70
2022/01/04 03:55:49;;;;;;;1.80;1.40;;;8.50;99.90;;;;;;2090405;28;20029;-70
2022/01/04 03:56:50;;;;;;;2.95;1.67;;;8.40;99.90;;;;;;2089916;28;20522;-69
2022/01/04 03:57:51;;;;;;;2.53;1.65;;;8.50;99.90;;;;;;2089921;28;20401;-69
2022/01/04 03:58:51;;;;;;;3.03;1.67;;;8.50;99.90;;;;;;2088546;28;20021;-69
2022/01/04 03:59:52;;;;;;;2.17;1.70;;;8.40;99.90;;;;;;2089179;28;20017;-69
2022/01/04 04:00:53;;;;;;;3.08;1.80;;;8.40;99.90;;;;;;2089352;28;20048;-69
2022/01/04 04:01:53;;;;;;;4.50;2.10;;;8.40;99.90;;;;;;2089254;28;20033;-69
2022/01/04 04:02:54;;;;;;;5.45;2.60;;;8.40;99.90;;;;;;2089384;28;20028;-69
2022/01/04 04:03:55;;;;;;;6.32;3.00;;;8.40;99.90;;;;;;2089465;28;20037;-69
2022/01/04 04:04:56;;;;;;;6.43;3.13;;;8.40;99.90;;;;;;2089871;28;20020;-69
2022/01/04 04:05:57;;;;;;;6.55;3.40;;;8.40;99.90;;;;;;2089821;28;20031;-69
2022/01/04 04:06:57;;;;;;;7.45;3.33;;;8.40;99.90;;;;;;2089910;28;20040;-69
2022/01/04 04:07:58;;;;;;;6.97;3.20;;;8.40;99.90;;;;;;2089924;28;20057;-69
2022/01/04 04:08:58;;;;;;;6.43;3.13;;;8.40;99.90;;;;;;2090025;28;20025;-69
2022/01/04 04:09:59;;;;;;;5.20;2.67;;;8.40;99.90;;;;;;2091651;28;20021;-69
2022/01/04 04:11:00;;;;;;;4.70;2.75;;;8.40;99.90;;;;;;2091225;28;20036;-70
2022/01/04 04:12:01;;;;;;;4.82;2.53;;;8.40;99.90;;;;;;2090912;28;20029;-70
2022/01/04 04:13:03;;;;;;;8.23;3.08;;;8.40;99.90;;;;;;2089356;28;20519;-70
2022/01/04 04:14:03;;;;;;;5.57;2.78;;;8.40;99.90;;;;;;2081038;28;20037;-69
2022/01/04 04:15:08;;;;;;;5.75;2.83;;;8.30;99.90;;;;;;2089029;28;20129;-69
2022/01/04 04:16:09;;;;;;;4.57;2.53;;;8.30;99.90;;;;;;2089875;28;20519;-69
2022/01/04 04:17:09;;;;;;;3.97;2.20;;;8.40;99.90;;;;;;2089781;28;20112;-70
2022/01/04 04:18:11;;;;;;;5.13;2.65;;;8.40;99.90;;;;;;2088726;28;20039;-70
2022/01/04 04:19:11;;;;;;;4.25;2.50;;;8.40;99.90;;;;;;2088668;28;20743;-69
2022/01/04 04:20:13;;;;;;;6.00;2.75;;;8.40;99.90;;;;;;2089735;28;20033;-69
2022/01/04 04:21:14;;;;;;;6.57;2.90;;;8.40;99.90;;;;;;2089559;28;20032;-70
2022/01/04 04:22:14;;;;;;;5.95;2.83;;;8.40;99.90;;;;;;2088706;28;20464;-70
2022/01/04 04:23:15;;;;;;;5.90;2.92;;;8.40;99.90;;;;;;2089044;28;20477;-70
2022/01/04 04:24:15;;;;;;;6.70;3.35;;;8.40;99.90;;;;;;2089035;28;20033;-70
2022/01/04 04:25:17;;;;;;;5.65;2.85;;;8.40;99.90;;;;;;2089296;28;20056;-70
2022/01/04 04:26:17;;;;;;;6.50;2.80;;;8.40;99.90;;;;;;2089687;28;20388;-70
2022/01/04 04:27:18;;;;;;;5.57;2.60;;;8.40;99.90;;;;;;2089802;28;20060;-69
2022/01/04 04:28:18;;;;;;;6.22;2.60;;;8.40;99.90;;;;;;2089823;28;20029;-69
2022/01/04 04:29:19;;;;;;;4.45;2.13;;;8.30;99.90;;;;;;2089124;28;20086;-70
2022/01/04 04:30:20;;;;;;;4.07;2.30;;;8.30;99.90;;;;;;2089564;28;20025;-69
2022/01/04 04:31:20;;;;;;;3.95;2.00;;;8.40;99.90;;;;;;2089632;28;20163;-69
2022/01/04 04:32:21;;;;;;;4.75;2.35;;;8.40;99.90;;;;;;2089361;28;20803;-69
2022/01/04 04:33:22;;;;;;;5.65;2.50;;;8.30;99.90;;;;;;2089496;28;20029;-69
2022/01/04 04:34:23;;;;;;;3.85;2.40;;;8.40;99.90;;;;;;2089713;28;20056;-69
2022/01/04 04:35:23;;;;;;;4.32;2.10;;;8.30;99.90;;;;;;2090089;28;20143;-69
2022/01/04 04:36:26;;;;;;;3.90;2.40;;;8.30;99.90;;;;;;2090662;28;20081;-70
2022/01/04 04:37:27;;;;;;;3.50;1.90;;;8.30;99.90;;;;;;2090389;28;20025;-70
2022/01/04 04:38:27;;;;;;;2.40;2.10;;;8.30;99.90;;;;;;2089107;28;20527;-69
2022/01/04 04:39:28;;;;;;;2.90;2.03;;;8.30;99.90;;;;;;2088804;28;20520;-69
2022/01/04 04:40:29;;;;;;;3.03;2.00;;;8.30;99.90;;;;;;2089559;28;20021;-69
2022/01/04 04:41:30;;;;;;;2.95;2.15;;;8.30;99.90;;;;;;2089041;28;20543;-70
2022/01/04 04:42:30;;;;;;;3.60;2.10;;;8.30;99.90;;;;;;2088924;28;20745;-69
2022/01/04 04:43:31;;;;;;;3.75;2.28;;;8.30;99.90;;;;;;2089511;28;20029;-70
2022/01/04 04:44:32;;;;;;;2.80;2.35;;;8.30;99.90;;;;;;2089317;28;20036;-70
2022/01/04 04:45:32;;;;;;;3.13;2.33;;;8.30;99.90;;;;;;2088831;28;20025;-69
2022/01/04 04:46:33;;;;;;;2.80;2.22;;;8.30;99.90;;;;;;2088880;28;20025;-70
2022/01/04 04:47:34;;;;;;;2.72;2.10;;;8.30;99.90;;;;;;2088782;28;20032;-69
2022/01/04 04:48:34;;;;;;;3.65;2.08;;;8.30;99.90;;;;;;2087782;28;20020;-69
2022/01/04 04:49:35;;;;;;;2.80;2.15;;;8.30;99.90;;;;;;2089605;28;20035;-69
2022/01/04 04:50:35;;;;;;;2.50;1.90;;;8.30;99.90;;;;;;2089422;28;20032;-70
2022/01/04 04:51:36;;;;;;;2.53;1.88;;;8.30;99.90;;;;;;2089468;28;20036;-71
2022/01/04 04:52:37;;;;;;;2.30;1.70;;;8.30;99.90;;;;;;2088625;28;20555;-70
2022/01/04 04:53:38;;;;;;;3.08;1.90;;;8.30;99.90;;;;;;2088839;28;20138;-71
2022/01/04 04:54:38;;;;;;;2.55;1.73;;;8.30;99.90;;;;;;2089534;28;20024;-71
2022/01/04 04:55:39;;;;;;;4.40;2.20;;;8.30;99.90;;;;;;2089684;28;20087;-71
2022/01/04 04:56:40;;;;;;;4.45;2.58;;;8.30;99.90;;;;;;2089227;28;20104;-71
2022/01/04 04:57:40;;;;;;;4.35;3.10;;;8.30;99.90;;;;;;2088936;28;20033;-70
2022/01/04 04:58:41;;;;;;;3.45;2.85;;;8.30;99.90;;;;;;2088446;28;20872;-71
2022/01/04 04:59:42;;;;;;;3.72;2.75;;;8.20;99.90;;;;;;2089027;28;20044;-70
2022/01/04 05:00:42;;;;;;;4.18;2.90;;;8.30;99.90;;;;;;2088973;28;20132;-70
2022/01/04 05:01:43;;;;;;;3.17;2.72;;;8.30;99.90;;;;;;2088469;28;20128;-70
2022/01/04 05:02:44;;;;;;;4.57;2.63;;;8.30;99.90;;;;;;2088733;28;20048;-70
2022/01/04 05:03:44;;;;;;;4.88;2.50;;;8.20;99.90;;;;;;2089318;28;20353;-69
2022/01/04 05:04:45;;;;;;;4.25;2.22;;;8.20;99.90;;;;;;2089357;28;20021;-70
2022/01/04 05:05:46;;;;;;;2.63;2.38;;;8.20;99.90;;;;;;2089382;28;20036;-70
2022/01/04 05:06:46;;;;;;;2.63;2.10;;;8.30;99.90;;;;;;2089279;28;20037;-69
2022/01/04 05:07:47;;;;;;;2.60;2.10;;;8.30;99.90;;;;;;2089188;28;20072;-70
2022/01/04 05:08:48;;;;;;;3.72;2.30;;;8.30;99.90;;;;;;2088400;28;20028;-70
2022/01/04 05:09:48;;;;;;;3.45;1.98;;;8.30;99.90;;;;;;2088795;28;20043;-71
2022/01/04 05:10:49;;;;;;;2.97;2.00;;;8.30;99.90;;;;;;2088894;28;20028;-71
2022/01/04 05:11:49;;;;;;;3.15;2.00;;;8.20;99.90;;;;;;2089141;28;20064;-70
2022/01/04 05:12:50;;;;;;;2.58;1.98;;;8.30;99.90;;;;;;2088976;28;20025;-70
2022/01/04 05:13:50;;;;;;;2.58;1.90;;;8.30;99.90;;;;;;2088766;28;20508;-70
2022/01/04 05:14:51;;;;;;;3.22;1.90;;;8.30;99.90;;;;;;2089371;28;20021;-70
2022/01/04 05:15:52;;;;;;;2.40;2.20;;;8.30;99.90;;;;;;2088956;28;20033;-70
2022/01/04 05:16:53;;;;;;;3.55;2.40;;;8.30;99.90;;;;;;2088885;28;20064;-71
2022/01/04 05:17:54;;;;;;;3.55;2.45;;;8.30;99.90;;;;;;2089298;28;20028;-71
2022/01/04 05:18:54;;;;;;;3.25;2.40;;;8.30;99.90;;;;;;2089101;28;20541;-70
2022/01/04 05:19:55;;;;;;;2.83;2.25;;;8.30;99.90;;;;;;2089485;28;20154;-70
2022/01/04 05:20:55;;;;;;;3.28;2.28;;;8.30;99.90;;;;;;2089461;28;20079;-70
2022/01/04 05:21:56;;;;;;;3.60;2.15;;;8.30;99.90;;;;;;2089175;28;20074;-70
2022/01/04 05:22:57;;;;;;;2.95;2.15;;;8.30;99.90;;;;;;2089264;28;20032;-70
2022/01/04 05:23:58;;;;;;;3.03;2.20;;;8.30;99.90;;;;;;2089313;28;20052;-71
2022/01/04 05:24:58;;;;;;;3.78;2.40;;;8.30;99.90;;;;;;2089295;28;20477;-70
2022/01/04 05:25:59;;;;;;;4.13;2.35;;;8.30;99.90;;;;;;2089351;28;20055;-69